Time;durP1;ratioP1;P1;durP2;ratioP2;P2;SDS_P1;SDS_P2;PMS_P1;PMS_P2;Temp;Humidity;BMP_temperature;BMP_pressure;BME280_temperature;BME280_humidity;BME280_pressure;Samples;Min_cycle;Max_cycle;Signal;HPM_P1;HPM_P2
2022/02/18 00:05:01;;;;;;;1999.90;999.90;;;;;;;7.68;54.62;100115.38;15635054;28;20073;-61
2022/02/18 00:12:35;;;;;;;1999.90;999.90;;;;;;;7.65;55.08;100121.59;15660353;28;20053;-61
2022/02/18 00:20:08;;;;;;;;;;;;;;;7.60;55.08;100120.94;15637416;28;20044;-61
2022/02/18 00:27:42;;;;;;;1999.90;999.90;;;;;;;7.51;55.79;100155.09;15650343;28;19933;-61
2022/02/18 00:35:19;;;;;;;1999.90;999.90;;;;;;;7.42;56.29;100139.56;15667726;28;20047;-60
2022/02/18 00:42:53;;;;;;;1999.90;999.90;;;;;;;7.39;56.70;100138.25;15630392;28;20049;-58
2022/02/18 00:50:26;;;;;;;1999.90;999.90;;;;;;;7.42;56.54;100157.06;15623705;28;20129;-62
2022/02/18 00:57:59;;;;;;;1999.90;999.90;;;;;;;7.48;56.74;100174.34;15615657;28;20139;-62
2022/02/18 01:05:31;;;;;;;1999.90;999.90;;;;;;;7.30;56.61;100181.84;15645589;28;20049;-60
2022/02/18 01:13:05;;;;;;;1999.90;999.90;;;;;;;7.33;56.65;100195.06;15649806;28;20095;-62
2022/02/18 01:20:41;;;;;;;1999.90;999.90;;;;;;;7.34;56.71;100207.81;15666742;28;20049;-60
2022/02/18 01:28:16;;;;;;;1999.90;999.90;;;;;;;7.47;56.02;100219.91;15648510;28;20048;-61
2022/02/18 01:35:52;;;;;;;1999.90;999.90;;;;;;;7.31;56.40;100216.78;15668114;28;20379;-62
2022/02/18 01:43:26;;;;;;;1999.90;999.90;;;;;;;7.22;56.89;100211.22;15667634;28;20135;-60
2022/02/18 01:50:58;;;;;;;1999.90;999.90;;;;;;;7.43;56.59;100224.47;15635095;28;20115;-62
2022/02/18 01:58:36;;;;;;;1999.90;999.90;;;;;;;7.37;56.92;100225.75;15656033;28;20045;-62
2022/02/18 02:06:09;;;;;;;1999.90;999.90;;;;;;;7.07;56.92;100239.41;15675871;28;20044;-61
2022/02/18 02:13:45;;;;;;;1999.90;999.90;;;;;;;7.05;57.19;100260.28;15675673;28;20103;-62
2022/02/18 02:21:26;;;;;;;1999.90;999.90;;;;;;;6.98;57.61;100249.63;15641372;28;20047;-61
2022/02/18 02:29:03;;;;;;;1999.90;999.90;;;;;;;7.09;57.40;100244.66;15697688;28;20053;-61
2022/02/18 02:36:36;;;;;;;1999.90;999.90;;;;;;;7.09;57.97;100234.38;15660966;28;20540;-61
2022/02/18 02:44:12;;;;;;;1999.90;999.90;;;;;;;7.01;58.12;100237.91;15654248;28;20276;-62
2022/02/18 02:51:46;;;;;;;1999.90;999.90;;;;;;;6.71;59.11;100228.50;15683229;28;20040;-60
2022/02/18 02:59:20;;;;;;;1999.90;999.90;;;;;;;6.94;58.77;100248.66;15642137;28;20386;-62
2022/02/18 03:06:52;;;;;;;1999.90;999.90;;;;;;;6.89;58.81;100246.84;15697223;28;20118;-61
2022/02/18 03:14:26;;;;;;;1999.90;999.90;;;;;;;6.97;59.23;100236.09;15663651;28;20188;-61
2022/02/18 03:22:21;;;;;;;1999.90;999.90;;;;;;;6.94;59.22;100249.47;15658644;28;20044;-61
2022/02/18 03:29:58;;;;;;;1999.90;999.90;;;;;;;6.94;59.02;100260.56;15708422;28;20044;-61
2022/02/18 03:37:39;;;;;;;1999.90;999.90;;;;;;;6.77;59.80;100263.25;15680010;28;20102;-60
2022/02/18 03:45:24;;;;;;;1999.90;999.90;;;;;;;6.68;60.00;100275.44;15681731;28;20087;-62
2022/02/18 03:52:57;;;;;;;1999.90;999.90;;;;;;;6.79;59.57;100283.19;15642076;28;20076;-61
2022/02/18 04:00:31;;;;;;;1999.90;999.90;;;;;;;6.65;60.66;100277.69;15658949;28;20532;-62
2022/02/18 04:08:08;;;;;;;1999.90;999.90;;;;;;;6.22;62.17;100288.50;15692891;28;20041;-60
2022/02/18 04:15:41;;;;;;;1999.90;999.90;;;;;;;6.22;62.85;100296.00;15676053;28;20045;-60
2022/02/18 04:23:14;;;;;;;1999.90;999.90;;;;;;;6.25;63.53;100295.34;15651770;28;20501;-61
2022/02/18 04:30:48;;;;;;;1999.90;999.90;;;;;;;6.34;63.33;100294.28;15650807;28;20044;-62
2022/02/18 04:38:20;;;;;;;1999.90;999.90;;;;;;;6.55;63.08;100299.31;15647646;28;20063;-59
2022/02/18 04:45:54;;;;;;;1999.90;999.90;;;;;;;6.42;63.59;100289.13;15640639;28;20038;-59
2022/02/18 04:53:26;;;;;;;1999.90;999.90;;;;;;;6.48;62.83;100297.03;15646335;28;20144;-60
2022/02/18 05:01:00;;;;;;;1999.90;999.90;;;;;;;6.23;63.93;100303.16;15650732;28;20049;-58
2022/02/18 05:08:32;;;;;;;1999.90;999.90;;;;;;;6.44;63.50;100300.72;15667829;28;20045;-59
2022/02/18 05:16:06;;;;;;;1999.90;999.90;;;;;;;6.43;63.80;100297.13;15650097;28;20333;-59
2022/02/18 05:23:42;;;;;;;1999.90;999.90;;;;;;;6.49;63.20;100298.66;15650058;28;20448;-62
2022/02/18 05:31:35;;;;;;;1999.90;999.90;;;;;;;6.33;63.95;100317.59;15663288;28;20070;-62
2022/02/18 05:39:07;;;;;;;;;;;;;;;6.30;64.95;100318.22;15679691;28;20452;-60
2022/02/18 05:46:40;;;;;;;1999.90;999.90;;;;;;;6.18;65.29;100314.38;15662032;28;19928;-59
2022/02/18 05:54:15;;;;;;;1999.90;999.90;;;;;;;5.90;66.79;100314.47;15660610;28;20037;-59
2022/02/18 06:01:49;;;;;;;1999.90;999.90;;;;;;;6.19;66.57;100322.38;15660016;28;20528;-60
2022/02/18 06:09:21;;;;;;;1999.90;999.90;;;;;;;6.13;67.19;100331.94;15678337;28;20053;-57
2022/02/18 06:16:55;;;;;;;1999.90;999.90;;;;;;;6.16;66.79;100322.19;15661070;28;20041;-60
2022/02/18 06:24:27;;;;;;;1999.90;999.90;;;;;;;6.18;66.67;100320.75;15675871;28;20041;-60
2022/02/18 06:32:02;;;;;;;1999.90;999.90;;;;;;;6.31;66.94;100325.41;15658194;28;20044;-59
2022/02/18 06:39:35;;;;;;;1999.90;999.90;;;;;;;6.36;67.13;100330.03;15665080;28;20210;-58
2022/02/18 06:47:13;;;;;;;1999.90;999.90;;;;;;;6.47;68.06;100316.75;15657544;28;20076;-60
2022/02/18 06:54:45;;;;;;;;;;;;;;;6.88;66.81;100295.13;15637505;28;20044;-60
2022/02/18 07:02:18;;;;;;;1999.90;999.90;;;;;;;6.83;67.09;100294.44;15674930;28;19952;-59
2022/02/18 07:09:50;;;;;;;;;;;;;;;7.01;66.44;100281.50;15674070;28;20102;-62
2022/02/18 07:17:28;;;;;;;1999.90;999.90;;;;;;;7.23;66.17;100281.41;15690614;28;19924;-62
2022/02/18 07:25:00;;;;;;;1999.90;999.90;;;;;;;7.31;65.96;100260.38;15655282;28;20053;-61
2022/02/18 07:32:34;;;;;;;1999.90;999.90;;;;;;;7.36;65.84;100261.03;15688046;28;20066;-57
2022/02/18 07:40:07;;;;;;;;;;;;;;;7.62;65.29;100250.00;15651359;28;20056;-60
2022/02/18 07:47:40;;;;;;;1999.90;999.90;;;;;;;7.66;65.32;100250.16;15659170;28;19955;-59
2022/02/18 07:55:12;;;;;;;1999.90;999.90;;;;;;;7.82;64.58;100241.03;15666067;28;20494;-60
2022/02/18 08:02:46;;;;;;;1999.90;999.90;;;;;;;7.94;64.71;100243.16;15601693;28;20044;-60
2022/02/18 08:10:18;;;;;;;1999.90;999.90;;;;;;;8.11;63.72;100232.00;15659486;28;20060;-60
2022/02/18 08:17:53;;;;;;;1999.90;999.90;;;;;;;8.31;62.95;100233.31;15672416;28;20045;-60
2022/02/18 08:25:25;;;;;;;1999.90;999.90;;;;;;;8.37;62.73;100220.91;15652745;28;20040;-60
2022/02/18 08:33:01;;;;;;;1999.90;999.90;;;;;;;8.75;62.08;100216.53;15669492;28;20086;-60
2022/02/18 08:40:34;;;;;;;1999.90;999.90;;;;;;;8.91;61.56;100204.53;15670027;28;20095;-61
2022/02/18 08:48:10;;;;;;;1999.90;999.90;;;;;;;8.84;61.89;100195.06;15666048;28;20053;-61
2022/02/18 08:55:44;;;;;;;1999.90;999.90;;;;;;;9.20;60.97;100178.69;15650374;28;20131;-61
2022/02/18 09:03:18;;;;;;;1999.90;999.90;;;;;;;9.55;60.17;100168.09;15630546;28;20040;-60
2022/02/18 09:10:50;;;;;;;1999.90;999.90;;;;;;;9.76;59.20;100145.81;15660791;28;20080;-60
2022/02/18 09:18:32;;;;;;;1999.90;999.90;;;;;;;10.46;58.17;100134.81;15672447;22;20049;-60
2022/02/18 09:26:04;;;;;;;;;;;;;;;10.30;58.14;100131.84;15673561;28;20106;-60
2022/02/18 09:33:38;;;;;;;1999.90;999.90;;;;;;;10.23;58.32;100112.09;15636453;28;19921;-59
2022/02/18 09:41:10;;;;;;;1999.90;999.90;;;;;;;10.02;58.88;100100.19;15599407;28;20056;-60
2022/02/18 09:48:45;;;;;;;1999.90;999.90;;;;;;;10.23;59.30;100092.59;15609854;28;20112;-59
2022/02/18 09:56:19;;;;;;;1999.90;999.90;;;;;;;10.19;59.00;100080.44;15610750;28;20069;-59
2022/02/18 10:22:23;;;;;;;1999.90;999.90;;;;;;;10.22;59.65;100014.88;15610401;28;20052;-60
2022/02/18 10:29:57;;;;;;;1999.90;999.90;;;;;;;10.72;58.60;99999.72;15609090;28;20496;-59
2022/02/18 10:37:32;;;;;;;1999.90;999.90;;;;;;;10.58;58.47;99981.38;15607851;28;20033;-59
2022/02/18 10:45:10;;;;;;;1999.90;999.90;;;;;;;10.46;59.09;99973.03;15607792;28;20056;-60
2022/02/18 11:29:30;;;;;;;1999.90;999.90;;;;;;;9.06;67.20;99848.88;15584882;28;20052;-60
2022/02/18 11:37:38;;;;;;;1999.90;999.90;;;;;;;9.38;66.82;99824.94;15566842;28;20148;-60
2022/02/18 11:45:13;;;;;;;1999.90;999.90;;;;;;;9.29;67.76;99804.78;15584294;28;20046;-60
2022/02/18 11:52:49;;;;;;;1999.90;999.90;;;;;;;9.32;67.25;99779.00;15645827;28;20231;-60
2022/02/18 12:00:37;;;;;;;1999.90;999.90;;;;;;;9.59;66.14;99746.84;15638088;28;20390;-60
2022/02/18 12:08:27;;;;;;;1999.90;999.90;;;;;;;9.24;67.42;99706.41;15605027;28;20045;-60
2022/02/18 12:16:01;;;;;;;1999.90;999.90;;;;;;;9.32;67.20;99685.16;15609289;28;21015;-60
2022/02/18 12:23:35;;;;;;;;;;;;;;;9.69;65.74;99685.09;15588440;28;20422;-60
2022/02/18 12:31:10;;;;;;;1999.90;999.90;;;;;;;9.22;67.02;99647.50;15639109;28;19979;-59
2022/02/18 12:38:42;;;;;;;;;;;;;;;9.48;66.23;99624.00;15601655;28;20049;-60
2022/02/18 12:46:16;;;;;;;1999.90;999.90;;;;;;;8.84;67.71;99602.53;15639930;28;19943;-59
2022/02/18 12:53:50;;;;;;;1999.90;999.90;;;;;;;8.78;69.05;99581.69;15631347;28;20048;-60
2022/02/18 13:01:24;;;;;;;1999.90;999.90;;;;;;;8.48;72.71;99542.97;15636762;28;20386;-60
2022/02/18 13:08:56;;;;;;;;;;;;;;;8.15;75.67;99504.16;15603431;28;20128;-60
2022/02/18 13:16:29;;;;;;;1999.90;999.90;;;;;;;7.79;79.50;99468.78;15635953;28;20299;-61
2022/02/18 13:24:02;;;;;;;1999.90;999.90;;;;;;;7.79;80.88;99446.56;15644946;28;20111;-60
2022/02/18 13:31:37;;;;;;;1999.90;999.90;;;;;;;7.78;81.66;99408.84;15598323;28;20660;-60
2022/02/18 13:39:14;;;;;;;1100.43;329.45;;;;;;;7.74;83.12;99363.50;15619599;28;20063;-60
2022/02/18 13:46:52;;;;;;;860.97;149.10;;;;;;;7.63;84.66;99315.16;15662721;28;20136;-61
2022/02/18 13:54:27;;;;;;;1999.90;999.90;;;;;;;7.79;85.29;99286.31;15614364;28;20057;-59
2022/02/18 14:02:03;;;;;;;1999.90;637.30;;;;;;;7.74;85.95;99258.00;15629017;28;20140;-60
2022/02/18 14:09:42;;;;;;;1999.90;999.90;;;;;;;8.18;85.73;99245.03;15642180;28;20053;-57
2022/02/18 14:17:24;;;;;;;1510.80;290.00;;;;;;;8.13;86.60;99202.78;15618534;28;20119;-59
2022/02/18 14:24:57;;;;;;;1730.68;339.73;;;;;;;8.24;86.03;99187.25;15640417;28;20049;-59
2022/02/18 14:32:33;;;;;;;583.15;243.20;;;;;;;8.19;87.26;99134.72;15574814;28;20050;-60
2022/02/18 14:40:11;;;;;;;1711.40;305.90;;;;;;;8.27;87.35;99104.00;15669030;28;20119;-60
2022/02/18 14:47:45;;;;;;;249.80;183.52;;;;;;;8.61;86.76;99088.59;15615246;28;20037;-59
2022/02/18 14:55:17;;;;;;;545.95;416.73;;;;;;;8.72;86.39;99061.06;15643098;28;20106;-60
2022/02/18 15:02:50;;;;;;;807.28;264.40;;;;;;;8.67;86.85;99050.22;15612938;28;20049;-56
2022/02/18 15:10:23;;;;;;;;;;;;;;;8.86;86.02;98999.44;15621104;28;20134;-59
2022/02/18 15:17:57;;;;;;;834.10;426.33;;;;;;;8.95;86.44;98995.25;15626808;28;19927;-61
2022/02/18 15:25:32;;;;;;;;;;;;;;;9.22;85.61;98973.97;15666628;28;20045;-61
2022/02/18 15:48:48;;;;;;;710.55;342.77;;;;;;;9.62;85.10;98850.25;15624822;28;20052;-62
2022/02/18 15:56:20;;;;;;;1451.40;623.92;;;;;;;9.64;85.25;98816.47;15625711;28;20103;-61
2022/02/18 16:03:54;;;;;;;655.83;371.67;;;;;;;9.74;85.26;98791.56;15626060;28;20053;-60
2022/02/18 16:11:27;;;;;;;296.60;142.10;;;;;;;9.70;85.29;98787.13;15659535;28;20516;-61
2022/02/18 16:19:00;;;;;;;414.85;235.80;;;;;;;9.82;84.75;98754.31;15626382;28;20045;-61
2022/02/18 16:26:33;;;;;;;326.02;161.27;;;;;;;9.89;84.18;98736.06;15644475;28;20099;-61
2022/02/18 16:34:08;;;;;;;1355.10;854.83;;;;;;;10.04;84.04;98708.03;15617884;28;20045;-60
2022/02/18 16:41:40;;;;;;;1569.13;568.83;;;;;;;10.03;83.87;98691.72;15655525;28;20319;-61
2022/02/18 16:49:13;;;;;;;1999.90;844.95;;;;;;;10.21;83.33;98677.97;15604218;28;20042;-62
2022/02/18 16:56:46;;;;;;;1254.78;650.75;;;;;;;10.40;82.81;98644.38;15634492;28;20094;-58
2022/02/18 17:04:19;;;;;;;1224.68;805.13;;;;;;;10.63;81.68;98619.16;15647146;28;20045;-62
2022/02/18 17:11:51;;;;;;;1436.25;769.17;;;;;;;10.64;81.76;98592.88;15609517;28;20491;-60
2022/02/18 17:19:31;;;;;;;1110.30;675.72;;;;;;;10.76;81.89;98563.88;15633178;28;20045;-61
2022/02/18 17:27:03;;;;;;;1762.40;849.17;;;;;;;10.85;81.58;98528.88;15664567;28;20417;-61
2022/02/18 17:34:36;;;;;;;984.70;789.35;;;;;;;11.14;80.21;98529.84;15614844;28;20044;-61
2022/02/18 17:42:11;;;;;;;1508.70;874.47;;;;;;;11.16;80.21;98498.78;15615420;28;20063;-61
2022/02/18 17:49:44;;;;;;;1265.18;856.90;;;;;;;11.19;80.24;98470.06;15667441;28;20064;-61
2022/02/18 17:57:16;;;;;;;953.30;619.85;;;;;;;11.28;79.53;98450.97;15616884;28;20145;-61
2022/02/18 18:04:51;;;;;;;1117.38;862.22;;;;;;;11.46;79.26;98428.69;15612182;28;20557;-61
2022/02/18 18:12:23;;;;;;;1255.88;729.17;;;;;;;11.65;78.06;98402.41;15643643;28;20067;-60
2022/02/18 18:19:57;;;;;;;1899.63;746.95;;;;;;;11.73;77.66;98392.84;15617223;28;20061;-58
2022/02/18 18:27:31;;;;;;;1488.47;731.85;;;;;;;11.82;77.12;98379.34;15605748;28;20466;-59
2022/02/18 18:35:05;;;;;;;1313.13;760.25;;;;;;;12.09;76.28;98376.97;15604978;28;20453;-60
2022/02/18 18:42:38;;;;;;;1618.32;846.92;;;;;;;12.27;75.24;98372.13;15587803;28;20040;-62
2022/02/18 18:50:13;;;;;;;1138.85;519.90;;;;;;;12.16;79.16;98490.75;15599293;28;20050;-60
2022/02/18 18:57:45;;;;;;;1999.90;999.90;;;;;;;11.46;81.21;98526.41;15608272;28;20041;-62
2022/02/18 19:05:19;;;;;;;1323.78;575.13;;;;;;;11.03;74.84;98508.66;15636926;28;20111;-61
2022/02/18 19:12:51;;;;;;;1999.90;999.90;;;;;;;11.24;69.28;98480.84;15636547;28;20037;-60
2022/02/18 19:20:26;;;;;;;1999.90;999.90;;;;;;;11.32;66.68;98464.94;15635125;28;20084;-59
2022/02/18 19:27:58;;;;;;;1999.90;999.90;;;;;;;11.29;63.70;98494.44;15614934;28;20048;-59
2022/02/18 19:35:31;;;;;;;1999.90;999.90;;;;;;;11.26;61.95;98520.38;15627239;28;20064;-59
2022/02/18 19:43:05;;;;;;;1999.90;999.90;;;;;;;11.36;60.72;98521.59;15608266;28;20044;-59
2022/02/18 19:50:38;;;;;;;1999.90;999.90;;;;;;;11.25;57.33;98502.00;15601240;28;20052;-60
2022/02/18 19:58:10;;;;;;;;;;;;;;;11.25;55.31;98508.41;15609181;28;20045;-59
2022/02/18 20:05:44;;;;;;;1097.20;385.00;;;;;;;11.12;54.41;98495.94;15602230;28;19974;-59
2022/02/18 20:13:17;;;;;;;986.78;493.83;;;;;;;11.09;52.25;98496.75;15604919;28;20041;-59
2022/02/18 20:20:52;;;;;;;1688.57;516.78;;;;;;;11.06;52.03;98494.72;15614672;28;20566;-58
2022/02/18 20:28:24;;;;;;;;;;;;;;;11.21;52.32;98499.19;15631292;28;20071;-60
2022/02/18 20:35:58;;;;;;;559.63;228.67;;;;;;;10.81;52.59;98524.44;15646510;28;19928;-60
2022/02/18 20:43:33;;;;;;;1885.38;708.80;;;;;;;10.92;51.45;98536.47;15591602;28;20079;-59
2022/02/18 20:51:07;;;;;;;165.48;148.55;;;;;;;11.32;49.55;98555.06;15615039;28;20541;-59
2022/02/18 20:58:40;;;;;;;396.52;349.02;;;;;;;11.16;48.38;98554.59;15621314;28;20044;-61
2022/02/18 21:06:14;;;;;;;1999.90;999.90;;;;;;;10.87;50.83;98631.72;15617929;28;20034;-59
2022/02/18 21:13:47;;;;;;;1969.00;532.38;;;;;;;10.44;50.56;98611.78;15616536;28;20056;-59
2022/02/18 21:21:21;;;;;;;1617.50;455.10;;;;;;;10.70;47.85;98661.84;15598378;28;20056;-57
2022/02/18 21:28:54;;;;;;;1999.90;620.83;;;;;;;10.55;47.25;98668.47;15582429;28;20152;-57
2022/02/18 21:36:30;;;;;;;450.70;314.42;;;;;;;10.81;46.80;98700.19;15581427;28;20084;-60
2022/02/18 21:44:02;;;;;;;1999.90;652.63;;;;;;;10.56;47.25;98683.22;15600962;28;20508;-59
2022/02/18 21:51:35;;;;;;;1999.90;505.10;;;;;;;10.42;47.07;98714.53;15628908;28;20054;-60
2022/02/18 21:59:09;;;;;;;1999.90;999.90;;;;;;;10.40;48.53;98711.28;15591034;28;20049;-61
2022/02/18 22:06:42;;;;;;;1999.90;389.55;;;;;;;10.31;47.95;98802.78;15647496;28;20190;-61
2022/02/18 22:14:15;;;;;;;1999.90;999.90;;;;;;;9.92;48.95;98796.63;15630307;28;20134;-60
2022/02/18 22:21:48;;;;;;;1999.90;999.90;;;;;;;9.53;52.11;98827.41;15640170;28;20041;-59
2022/02/18 22:29:21;;;;;;;1999.90;999.90;;;;;;;9.46;53.30;98824.50;15598351;28;20151;-59
2022/02/18 22:36:55;;;;;;;1999.90;999.90;;;;;;;9.43;52.70;98864.22;15602851;28;20136;-60
2022/02/18 22:44:28;;;;;;;1999.90;999.90;;;;;;;9.36;52.16;98878.00;15647558;28;20098;-60
2022/02/18 22:52:03;;;;;;;1999.90;999.90;;;;;;;9.32;51.70;98893.84;15637128;28;20058;-61
2022/02/18 22:59:35;;;;;;;1999.90;999.90;;;;;;;9.38;51.14;98909.06;15649291;28;20421;-61
2022/02/18 23:07:09;;;;;;;1999.90;999.90;;;;;;;9.37;50.71;98897.13;15619449;28;20041;-60
2022/02/18 23:14:41;;;;;;;1999.90;999.90;;;;;;;9.33;50.40;98901.03;15646193;28;20049;-61
2022/02/18 23:22:15;;;;;;;1999.90;999.90;;;;;;;9.18;52.03;98913.88;15641937;28;20049;-60
2022/02/18 23:29:47;;;;;;;1999.90;999.90;;;;;;;9.08;52.09;98939.50;15653510;28;20115;-60
2022/02/18 23:37:21;;;;;;;1999.90;999.90;;;;;;;9.08;51.43;98950.63;15623467;28;20041;-61
2022/02/18 23:44:53;;;;;;;1999.90;999.90;;;;;;;8.98;48.77;98945.63;15643078;28;20129;-60
2022/02/18 23:52:26;;;;;;;1999.90;999.90;;;;;;;9.25;48.51;98948.19;15630944;28;20516;-59
2022/02/18 23:59:59;;;;;;;1999.90;999.90;;;;;;;9.36;48.01;98931.69;15628811;28;20476;-61
